createdAt,value
2018-12-13T00:02:36.658Z,45.60
2018-12-13T00:07:41.034Z,35.97
2018-12-13T00:12:43.303Z,36.33
2018-12-13T00:17:45.545Z,39.87
2018-12-13T00:22:47.900Z,37.00
2018-12-13T00:27:50.147Z,40.33
2018-12-13T00:32:52.402Z,36.50
2018-12-13T00:37:54.661Z,39.70
2018-12-13T00:42:56.900Z,38.43
2018-12-13T00:47:59.250Z,38.77
2018-12-13T00:53:01.527Z,42.63
2018-12-13T00:58:03.886Z,35.13
2018-12-13T01:03:06.147Z,32.57
2018-12-13T01:08:08.375Z,31.97
2018-12-13T01:13:10.737Z,31.30
2018-12-13T01:18:12.979Z,31.80
2018-12-13T01:23:15.313Z,30.97
2018-12-13T01:28:17.609Z,27.73
2018-12-13T01:33:19.858Z,26.93
2018-12-13T01:38:22.114Z,24.70
2018-12-13T01:43:24.595Z,25.43
2018-12-13T01:48:26.849Z,27.43
2018-12-13T01:53:29.320Z,21.43
2018-12-13T01:58:31.561Z,23.10
2018-12-13T02:03:33.807Z,18.77
2018-12-13T02:08:36.060Z,19.83
2018-12-13T02:13:38.476Z,19.70
2018-12-13T02:18:40.842Z,21.93
2018-12-13T02:23:43.302Z,24.30
2018-12-13T02:28:45.560Z,23.40
2018-12-13T02:33:47.819Z,28.03
2018-12-13T02:38:50.116Z,35.47
2018-12-13T02:43:52.359Z,26.23
2018-12-13T02:49:08.270Z,27.17
2018-12-13T02:54:10.546Z,23.77
2018-12-13T02:59:12.794Z,22.13
2018-12-13T03:04:15.066Z,27.47
2018-12-13T03:09:17.316Z,24.03
2018-12-13T03:14:19.626Z,23.40
2018-12-13T03:19:21.867Z,28.07
2018-12-13T03:24:24.140Z,27.97
2018-12-13T03:29:26.508Z,27.67
2018-12-13T03:34:28.756Z,25.37
2018-12-13T03:39:31.039Z,28.10
2018-12-13T03:44:33.282Z,26.47
2018-12-13T03:49:35.683Z,29.30
2018-12-13T03:54:37.999Z,29.87
2018-12-13T03:59:40.389Z,30.73
2018-12-13T04:04:42.642Z,27.67
2018-12-13T04:09:45.056Z,32.67
2018-12-13T04:14:47.659Z,36.73
2018-12-13T04:19:49.935Z,33.73
2018-12-13T04:24:53.799Z,36.67
2018-12-13T04:29:56.078Z,33.87
2018-12-13T04:34:58.371Z,30.07
2018-12-13T04:40:00.642Z,33.93
2018-12-13T04:45:03.107Z,31.37
2018-12-13T04:50:06.167Z,32.57
2018-12-13T04:55:09.358Z,35.50
2018-12-13T05:00:12.002Z,31.77
2018-12-13T05:05:14.491Z,32.83
2018-12-13T05:10:28.307Z,31.90
2018-12-13T05:15:31.759Z,31.00
2018-12-13T05:20:34.146Z,29.53
2018-12-13T05:25:36.541Z,29.00
2018-12-13T05:30:39.078Z,30.50
2018-12-13T05:35:41.343Z,34.00
2018-12-13T05:40:43.675Z,33.00
2018-12-13T05:45:45.988Z,32.23
2018-12-13T05:50:48.640Z,31.53
2018-12-13T05:55:50.956Z,34.33
2018-12-13T06:00:53.226Z,33.77
2018-12-13T06:05:55.499Z,35.03
2018-12-13T06:10:57.838Z,33.97
2018-12-13T06:16:00.751Z,36.30
2018-12-13T06:21:03.173Z,36.77
2018-12-13T06:26:05.531Z,36.67
2018-12-13T06:31:07.815Z,36.33
2018-12-13T06:36:10.729Z,40.10
2018-12-13T06:41:13.203Z,40.97
2018-12-13T06:46:15.673Z,34.20
2018-12-13T06:51:17.945Z,37.13
2018-12-13T06:56:21.430Z,36.40
2018-12-13T07:01:23.696Z,40.87
2018-12-13T07:06:25.978Z,41.57
2018-12-13T07:11:28.328Z,38.50
2018-12-13T07:16:30.647Z,42.77
2018-12-13T07:21:32.966Z,45.30
2018-12-13T07:26:35.332Z,45.80
2018-12-13T07:31:37.630Z,45.53
2018-12-13T07:36:39.990Z,44.13
2018-12-13T07:41:43.045Z,41.50
2018-12-13T07:46:45.928Z,48.10
2018-12-13T07:51:48.220Z,46.80
2018-12-13T07:56:50.545Z,48.50
2018-12-13T08:01:53.171Z,49.53
2018-12-13T08:06:55.496Z,57.63
2018-12-13T08:11:57.779Z,55.33
2018-12-13T08:17:00.136Z,55.83
2018-12-13T08:22:04.510Z,45.23
2018-12-13T08:27:06.920Z,40.87
2018-12-13T08:32:09.200Z,41.73
2018-12-13T08:37:11.496Z,36.50
2018-12-13T08:42:13.763Z,41.37
2018-12-13T08:47:16.159Z,38.57
2018-12-13T08:52:18.468Z,40.87
2018-12-13T08:57:21.042Z,43.60
2018-12-13T09:02:23.304Z,42.97
2018-12-13T09:07:25.587Z,38.83
2018-12-13T09:12:27.871Z,43.00
2018-12-13T09:17:30.167Z,41.90
2018-12-13T09:22:32.447Z,44.80
2018-12-13T09:27:34.778Z,47.37
2018-12-13T09:32:37.263Z,48.43
2018-12-13T09:37:39.555Z,49.57
2018-12-13T09:42:41.831Z,47.87
2018-12-13T09:47:44.105Z,49.03
2018-12-13T09:52:46.490Z,41.90
2018-12-13T09:57:48.852Z,37.80
2018-12-13T10:02:51.327Z,41.80
2018-12-13T10:07:54.262Z,43.83
2018-12-13T10:12:57.011Z,42.30
2018-12-13T10:17:59.364Z,37.73
2018-12-13T10:23:01.660Z,38.33
2018-12-13T10:28:05.570Z,39.93
2018-12-13T10:33:07.859Z,37.90
2018-12-13T10:38:11.822Z,37.90
2018-12-13T10:43:14.266Z,42.43
2018-12-13T10:48:16.546Z,36.47
2018-12-13T10:53:19.247Z,39.23
2018-12-13T10:58:21.592Z,41.07
2018-12-13T11:03:29.614Z,39.93
2018-12-13T11:08:38.787Z,38.40
2018-12-13T11:13:41.263Z,40.20
2018-12-13T11:18:43.656Z,34.67
2018-12-13T11:23:45.940Z,38.50
2018-12-13T11:30:15.761Z,36.87
2018-12-13T11:35:18.067Z,33.80
2018-12-13T11:40:20.340Z,36.67
2018-12-13T11:45:22.759Z,38.37
2018-12-13T11:50:25.079Z,37.27
2018-12-13T11:55:32.520Z,34.97
2018-12-13T12:00:34.843Z,38.33
2018-12-13T12:05:37.138Z,40.60
2018-12-13T12:10:40.118Z,42.07
2018-12-13T12:15:42.587Z,39.33
2018-12-13T12:20:45.119Z,40.13
2018-12-13T12:25:48.350Z,37.43
2018-12-13T12:30:51.028Z,35.10
2018-12-13T12:35:53.299Z,35.57
2018-12-13T12:40:55.578Z,34.13
2018-12-13T12:45:57.853Z,34.70
2018-12-13T12:51:00.187Z,31.83
2018-12-13T12:56:02.608Z,28.23
2018-12-13T13:01:05.053Z,28.63
2018-12-13T13:06:07.322Z,26.70
2018-12-13T13:11:09.660Z,28.33
2018-12-13T13:16:11.987Z,25.93
2018-12-13T13:21:14.300Z,26.10
2018-12-13T13:26:16.599Z,25.63
2018-12-13T13:31:18.951Z,25.43
2018-12-13T13:36:21.981Z,24.23
2018-12-13T13:41:27.331Z,24.73
2018-12-13T13:46:29.780Z,26.40
2018-12-13T13:51:32.071Z,27.17
2018-12-13T13:56:34.413Z,25.47
2018-12-13T14:01:36.803Z,28.00
2018-12-13T14:06:39.120Z,26.83
2018-12-13T14:11:41.526Z,30.20
2018-12-13T14:16:43.992Z,30.00
2018-12-13T14:21:46.277Z,29.77
2018-12-13T14:26:49.165Z,29.80
2018-12-13T14:31:51.463Z,30.63
2018-12-13T14:36:53.899Z,33.23
2018-12-13T14:41:56.456Z,30.20
2018-12-13T14:47:00.856Z,32.20
2018-12-13T14:52:03.347Z,33.70
2018-12-13T14:57:05.640Z,32.53
2018-12-13T15:02:07.962Z,34.47
2018-12-13T15:07:10.347Z,32.77
2018-12-13T15:12:12.652Z,35.63
2018-12-13T15:17:15.008Z,35.70
2018-12-13T15:22:17.299Z,34.80
2018-12-13T15:27:19.607Z,34.83
2018-12-13T15:32:22.312Z,39.77
2018-12-13T15:37:24.659Z,39.17
2018-12-13T15:42:26.939Z,41.70
2018-12-13T15:47:29.215Z,38.30
2018-12-13T15:52:31.519Z,42.83
2018-12-13T15:57:35.721Z,38.77
2018-12-13T16:02:38.087Z,36.27
2018-12-13T16:07:41.127Z,38.13
2018-12-13T16:12:43.883Z,39.43
2018-12-13T16:17:46.345Z,40.67
2018-12-13T16:22:48.855Z,40.30
2018-12-13T16:27:51.298Z,38.57
2018-12-13T16:32:54.133Z,37.90
2018-12-13T16:37:56.690Z,40.80
2018-12-13T16:42:59.533Z,37.63
2018-12-13T16:48:02.614Z,38.77
2018-12-13T16:53:04.999Z,37.70
2018-12-13T16:58:07.283Z,36.70
2018-12-13T17:03:21.029Z,39.50
2018-12-13T17:08:24.521Z,36.83
2018-12-13T17:13:27.047Z,37.53
2018-12-13T17:18:29.394Z,35.57
2018-12-13T17:23:31.691Z,33.87
2018-12-13T17:28:34.060Z,33.20
2018-12-13T17:33:36.363Z,29.53
2018-12-13T17:38:38.630Z,30.00
2018-12-13T17:43:41.049Z,34.07
2018-12-13T17:48:43.376Z,29.07
2018-12-13T17:53:45.635Z,26.17
2018-12-13T17:58:48.066Z,30.40
2018-12-13T18:03:50.717Z,27.23
2018-12-13T18:08:53.015Z,30.90
2018-12-13T18:13:55.627Z,29.67
2018-12-13T18:18:59.477Z,28.20
2018-12-13T18:24:01.789Z,31.13
2018-12-13T18:29:05.248Z,27.40
2018-12-13T18:34:08.026Z,29.23
2018-12-13T18:39:10.373Z,29.43
2018-12-13T18:44:12.653Z,27.33
2018-12-13T18:49:15.067Z,24.00
2018-12-13T18:54:17.462Z,27.13
2018-12-13T18:59:19.850Z,25.13
2018-12-13T19:04:22.152Z,23.70
2018-12-13T19:09:24.498Z,17.73
2018-12-13T19:14:26.778Z,22.23
2018-12-13T19:19:29.974Z,19.77
2018-12-13T19:24:32.339Z,16.63
2018-12-13T19:29:34.606Z,16.57
2018-12-13T19:34:36.891Z,17.13
2018-12-13T19:39:39.853Z,19.37
2018-12-13T19:44:42.144Z,25.07
2018-12-13T19:49:45.167Z,23.83
2018-12-13T19:54:48.802Z,25.00
2018-12-13T19:59:52.542Z,26.57
2018-12-13T20:04:55.797Z,24.83
2018-12-13T20:09:58.255Z,23.70
2018-12-13T20:15:02.166Z,24.03
2018-12-13T20:20:05.367Z,25.43
2018-12-13T20:25:08.846Z,25.73
2018-12-13T20:30:12.250Z,26.60
2018-12-13T20:35:14.958Z,27.97
2018-12-13T20:40:17.335Z,29.40
2018-12-13T20:45:19.919Z,32.50
2018-12-13T20:50:22.175Z,32.87
2018-12-13T20:55:24.447Z,37.90
2018-12-13T21:00:26.727Z,37.40
2018-12-13T21:05:29.035Z,44.87
2018-12-13T21:10:31.478Z,39.17
2018-12-13T21:15:33.966Z,45.03
2018-12-13T21:20:36.236Z,44.67
2018-12-13T21:25:38.500Z,43.37
2018-12-13T21:30:41.604Z,48.03
2018-12-13T21:35:43.866Z,52.07
2018-12-13T21:40:46.176Z,55.87
2018-12-13T21:45:48.433Z,53.97
2018-12-13T21:50:50.875Z,56.27
2018-12-13T21:55:53.171Z,49.47
2018-12-13T22:00:55.443Z,50.40
2018-12-13T22:05:57.719Z,47.13
2018-12-13T22:11:01.270Z,50.27
2018-12-13T22:16:03.743Z,53.47
2018-12-13T22:21:06.077Z,48.87
2018-12-13T22:26:09.529Z,52.13
2018-12-13T22:31:12.011Z,50.47
2018-12-13T22:36:14.379Z,44.10
2018-12-13T22:41:16.678Z,46.80
2018-12-13T22:46:18.954Z,47.53
2018-12-13T22:51:21.263Z,48.80
2018-12-13T23:01:57.501Z,47.83
2018-12-13T23:06:59.907Z,49.57
2018-12-13T23:12:02.374Z,43.63
2018-12-13T23:17:05.923Z,45.90
2018-12-13T23:22:08.247Z,46.63
2018-12-13T23:27:11.050Z,43.17
2018-12-13T23:32:13.334Z,45.70
2018-12-13T23:37:16.698Z,40.43
2018-12-13T23:42:18.975Z,40.77
2018-12-13T23:47:21.315Z,39.10
2018-12-13T23:52:23.657Z,39.27
2018-12-13T23:57:25.934Z,40.70
